UAL1920 KIAD-KEWR
Flight info
| Callsign | UAL1920 |
|---|---|
| Flight time | 0h 37m |
| Altitude | 23000 |
| Route | JCOBY4 SWANN PHLBO4 |
| Aircraft | B739/M-SDE2E3FGHIRWXY/LB1 |
Departure
| Time | 2026-05-07 17:37 |
|---|---|
| Airport | Washington Dulles International Airport (KIAD) |
Arrival
| Time | 2026-05-07 18:15 |
|---|---|
| Airport | Newark Liberty International Airport (KEWR) |
| Time | Latitude | Longitude | Altitude | Speed | Heading |
|---|---|---|---|---|---|
| 2026-05-07 16:34 | 38.94591 | -77.44643 | 305 ft | 0 kts | 186° |
| 2026-05-07 17:21 | 38.94593 | -77.44643 | 305 ft | 0 kts | 185° |
| 2026-05-07 17:22 | 38.94610 | -77.44642 | 304 ft | 3 kts | 179° |
| 2026-05-07 17:22 | 38.94628 | -77.44642 | 304 ft | 2 kts | 182° |
| 2026-05-07 17:22 | 38.94645 | -77.44639 | 303 ft | 3 kts | 207° |
| 2026-05-07 17:22 | 38.94658 | -77.44625 | 303 ft | 3 kts | 256° |
| 2026-05-07 17:23 | 38.94660 | -77.44609 | 303 ft | 3 kts | 269° |
| 2026-05-07 17:23 | 38.94660 | -77.44599 | 303 ft | 0 kts | 270° |
| 2026-05-07 17:24 | 38.94660 | -77.44607 | 303 ft | 1 kts | 271° |
| 2026-05-07 17:25 | 38.94660 | -77.44611 | 303 ft | 0 kts | 271° |
| 2026-05-07 17:26 | 38.94660 | -77.44614 | 303 ft | 2 kts | 270° |
| 2026-05-07 17:26 | 38.94661 | -77.44666 | 303 ft | 7 kts | 271° |
| 2026-05-07 17:26 | 38.94661 | -77.44731 | 303 ft | 7 kts | 265° |
| 2026-05-07 17:27 | 38.94661 | -77.44783 | 303 ft | 6 kts | 272° |
| 2026-05-07 17:27 | 38.94664 | -77.44833 | 303 ft | 5 kts | 276° |
| 2026-05-07 17:27 | 38.94664 | -77.44881 | 303 ft | 5 kts | 265° |
| 2026-05-07 17:27 | 38.94662 | -77.44929 | 302 ft | 5 kts | 268° |
| 2026-05-07 17:28 | 38.94661 | -77.44978 | 302 ft | 5 kts | 270° |
| 2026-05-07 17:28 | 38.94661 | -77.45025 | 301 ft | 5 kts | 270° |
| 2026-05-07 17:28 | 38.94662 | -77.45072 | 301 ft | 5 kts | 272° |
| 2026-05-07 17:28 | 38.94663 | -77.45118 | 301 ft | 5 kts | 271° |
| 2026-05-07 17:29 | 38.94664 | -77.45164 | 300 ft | 5 kts | 272° |
| 2026-05-07 17:29 | 38.94665 | -77.45209 | 300 ft | 5 kts | 271° |
| 2026-05-07 17:29 | 38.94666 | -77.45254 | 299 ft | 5 kts | 273° |
| 2026-05-07 17:29 | 38.94666 | -77.45310 | 299 ft | 7 kts | 269° |
| 2026-05-07 17:30 | 38.94667 | -77.45384 | 298 ft | 10 kts | 271° |
| 2026-05-07 17:30 | 38.94667 | -77.45473 | 301 ft | 8 kts | 269° |
| 2026-05-07 17:30 | 38.94666 | -77.45550 | 297 ft | 10 kts | 269° |
| 2026-05-07 17:30 | 38.94660 | -77.45642 | 296 ft | 11 kts | 268° |
| 2026-05-07 17:31 | 38.94619 | -77.45715 | 299 ft | 11 kts | 194° |
| 2026-05-07 17:31 | 38.94543 | -77.45722 | 301 ft | 11 kts | 180° |
| 2026-05-07 17:31 | 38.94470 | -77.45722 | 303 ft | 10 kts | 178° |
| 2026-05-07 17:31 | 38.94398 | -77.45722 | 303 ft | 10 kts | 181° |
| 2026-05-07 17:32 | 38.94329 | -77.45726 | 303 ft | 10 kts | 181° |
| 2026-05-07 17:32 | 38.94261 | -77.45725 | 306 ft | 10 kts | 177° |
| 2026-05-07 17:32 | 38.94195 | -77.45725 | 306 ft | 9 kts | 180° |
| 2026-05-07 17:32 | 38.94130 | -77.45726 | 307 ft | 10 kts | 181° |
| 2026-05-07 17:33 | 38.94055 | -77.45729 | 306 ft | 12 kts | 180° |
| 2026-05-07 17:33 | 38.93964 | -77.45730 | 302 ft | 14 kts | 180° |
| 2026-05-07 17:33 | 38.93867 | -77.45730 | 303 ft | 14 kts | 181° |
| 2026-05-07 17:33 | 38.93785 | -77.45720 | 301 ft | 13 kts | 152° |
| 2026-05-07 17:34 | 38.93714 | -77.45624 | 295 ft | 17 kts | 132° |
| 2026-05-07 17:34 | 38.93630 | -77.45509 | 290 ft | 18 kts | 152° |
| 2026-05-07 17:34 | 38.93513 | -77.45530 | 283 ft | 16 kts | 199° |
| 2026-05-07 17:34 | 38.93477 | -77.45547 | 281 ft | 1 kts | 201° |
| 2026-05-07 17:35 | 38.93464 | -77.45554 | 281 ft | 3 kts | 202° |
| 2026-05-07 17:35 | 38.93441 | -77.45566 | 280 ft | 4 kts | 203° |
| 2026-05-07 17:35 | 38.93417 | -77.45581 | 280 ft | 4 kts | 207° |
| 2026-05-07 17:35 | 38.93393 | -77.45610 | 281 ft | 6 kts | 234° |
| 2026-05-07 17:36 | 38.93384 | -77.45667 | 281 ft | 7 kts | 282° |
| 2026-05-07 17:36 | 38.93386 | -77.45674 | 281 ft | 1 kts | 285° |
| 2026-05-07 17:36 | 38.93434 | -77.45845 | 282 ft | 52 kts | 291° |
| 2026-05-07 17:36 | 38.93644 | -77.46560 | 295 ft | 117 kts | 290° |
| 2026-05-07 17:37 | 38.93996 | -77.47763 | 301 ft | 167 kts | 289° |
| 2026-05-07 17:37 | 38.94403 | -77.49176 | 885 ft | 158 kts | 290° |
| 2026-05-07 17:37 | 38.94773 | -77.50406 | 1767 ft | 149 kts | 305° |
| 2026-05-07 17:37 | 38.95504 | -77.51478 | 2096 ft | 172 kts | 314° |
| 2026-05-07 17:38 | 38.96360 | -77.52688 | 2373 ft | 198 kts | 313° |
| 2026-05-07 17:38 | 38.97354 | -77.54072 | 2557 ft | 221 kts | 313° |
| 2026-05-07 17:38 | 38.98422 | -77.55586 | 2883 ft | 232 kts | 313° |
| 2026-05-07 17:38 | 38.99498 | -77.57091 | 2935 ft | 226 kts | 318° |
| 2026-05-07 17:39 | 39.00864 | -77.58039 | 2951 ft | 224 kts | 349° |
| 2026-05-07 17:39 | 39.02407 | -77.57851 | 2993 ft | 231 kts | 22° |
| 2026-05-07 17:39 | 39.03725 | -77.56590 | 3007 ft | 248 kts | 45° |
| 2026-05-07 17:39 | 39.04883 | -77.54905 | 2988 ft | 259 kts | 48° |
| 2026-05-07 17:40 | 39.06048 | -77.53129 | 2982 ft | 260 kts | 52° |
| 2026-05-07 17:40 | 39.06987 | -77.51155 | 3000 ft | 258 kts | 59° |
| 2026-05-07 17:40 | 39.07857 | -77.49140 | 2998 ft | 257 kts | 59° |
| 2026-05-07 17:40 | 39.08721 | -77.47130 | 3010 ft | 256 kts | 59° |
| 2026-05-07 17:41 | 39.09582 | -77.45121 | 3010 ft | 257 kts | 59° |
| 2026-05-07 17:41 | 39.10444 | -77.43112 | 3001 ft | 257 kts | 59° |
| 2026-05-07 17:41 | 39.11309 | -77.41099 | 3004 ft | 256 kts | 59° |
| 2026-05-07 17:41 | 39.12170 | -77.39091 | 2995 ft | 257 kts | 60° |
| 2026-05-07 17:42 | 39.12765 | -77.36924 | 2979 ft | 262 kts | 86° |
| 2026-05-07 17:42 | 39.12657 | -77.34621 | 3016 ft | 264 kts | 92° |
| 2026-05-07 17:42 | 39.12595 | -77.32242 | 3005 ft | 266 kts | 88° |
| 2026-05-07 17:42 | 39.12639 | -77.29866 | 3003 ft | 265 kts | 85° |
| 2026-05-07 17:43 | 39.12761 | -77.27502 | 2994 ft | 263 kts | 83° |
| 2026-05-07 17:43 | 39.12934 | -77.25169 | 2996 ft | 261 kts | 83° |
| 2026-05-07 17:43 | 39.13130 | -77.22848 | 3005 ft | 260 kts | 82° |
| 2026-05-07 17:43 | 39.13333 | -77.20534 | 3007 ft | 261 kts | 82° |
| 2026-05-07 17:44 | 39.13539 | -77.18211 | 3002 ft | 261 kts | 82° |
| 2026-05-07 17:44 | 39.13517 | -77.15919 | 2999 ft | 261 kts | 99° |
| 2026-05-07 17:44 | 39.13123 | -77.13637 | 3004 ft | 262 kts | 101° |
| 2026-05-07 17:44 | 39.12722 | -77.11327 | 3006 ft | 267 kts | 101° |
| 2026-05-07 17:45 | 39.12327 | -77.08984 | 3073 ft | 268 kts | 101° |
| 2026-05-07 17:45 | 39.11941 | -77.06624 | 3591 ft | 269 kts | 101° |
| 2026-05-07 17:45 | 39.11559 | -77.04262 | 4380 ft | 271 kts | 101° |
| 2026-05-07 17:45 | 39.11175 | -77.01866 | 5065 ft | 277 kts | 100° |
| 2026-05-07 17:46 | 39.10780 | -76.99394 | 5634 ft | 287 kts | 99° |
| 2026-05-07 17:46 | 39.10604 | -76.96804 | 6218 ft | 294 kts | 88° |
| 2026-05-07 17:46 | 39.10667 | -76.94173 | 6822 ft | 301 kts | 85° |
| 2026-05-07 17:46 | 39.10779 | -76.91456 | 7478 ft | 308 kts | 86° |
| 2026-05-07 17:47 | 39.10893 | -76.88686 | 8186 ft | 313 kts | 87° |
| 2026-05-07 17:47 | 39.10996 | -76.85847 | 8725 ft | 322 kts | 89° |
| 2026-05-07 17:47 | 39.11089 | -76.82921 | 9287 ft | 331 kts | 90° |
| 2026-05-07 17:47 | 39.11173 | -76.79947 | 9949 ft | 335 kts | 90° |
| 2026-05-07 17:48 | 39.11253 | -76.76911 | 10379 ft | 347 kts | 91° |
| 2026-05-07 17:48 | 39.11331 | -76.73710 | 10529 ft | 368 kts | 90° |
| 2026-05-07 17:48 | 39.11412 | -76.70326 | 10713 ft | 387 kts | 90° |
| 2026-05-07 17:48 | 39.11495 | -76.66867 | 11108 ft | 396 kts | 90° |
| 2026-05-07 17:49 | 39.11581 | -76.63307 | 11695 ft | 400 kts | 90° |
| 2026-05-07 17:49 | 39.11667 | -76.59715 | 12343 ft | 403 kts | 91° |
| 2026-05-07 17:49 | 39.11751 | -76.56090 | 12987 ft | 407 kts | 91° |
| 2026-05-07 17:49 | 39.11839 | -76.52423 | 13604 ft | 412 kts | 90° |
| 2026-05-07 17:50 | 39.12109 | -76.48722 | 14161 ft | 419 kts | 84° |
| 2026-05-07 17:50 | 39.12548 | -76.44989 | 14714 ft | 425 kts | 82° |
| 2026-05-07 17:50 | 39.13034 | -76.41201 | 15229 ft | 432 kts | 82° |
| 2026-05-07 17:50 | 39.13513 | -76.37359 | 15767 ft | 438 kts | 83° |
| 2026-05-07 17:51 | 39.13964 | -76.33509 | 16288 ft | 443 kts | 84° |
| 2026-05-07 17:51 | 39.14408 | -76.29556 | 16815 ft | 449 kts | 84° |
| 2026-05-07 17:51 | 39.15080 | -76.25601 | 17288 ft | 458 kts | 70° |
| 2026-05-07 17:51 | 39.16474 | -76.21898 | 17795 ft | 461 kts | 54° |
| 2026-05-07 17:52 | 39.18483 | -76.18706 | 18308 ft | 459 kts | 38° |
| 2026-05-07 17:52 | 39.20857 | -76.15926 | 18797 ft | 462 kts | 36° |
| 2026-05-07 17:52 | 39.23276 | -76.13180 | 19199 ft | 468 kts | 36° |
| 2026-05-07 17:52 | 39.25752 | -76.10374 | 19484 ft | 478 kts | 36° |
| 2026-05-07 17:53 | 39.28248 | -76.07514 | 19940 ft | 482 kts | 36° |
| 2026-05-07 17:53 | 39.30757 | -76.04605 | 20440 ft | 486 kts | 37° |
| 2026-05-07 17:53 | 39.33238 | -76.01702 | 20878 ft | 491 kts | 37° |
| 2026-05-07 17:53 | 39.35779 | -75.98712 | 21294 ft | 496 kts | 37° |
| 2026-05-07 17:54 | 39.38341 | -75.95690 | 21700 ft | 502 kts | 37° |
| 2026-05-07 17:54 | 39.40931 | -75.92630 | 22181 ft | 506 kts | 37° |
| 2026-05-07 17:54 | 39.43541 | -75.89543 | 22613 ft | 511 kts | 37° |
| 2026-05-07 17:54 | 39.46175 | -75.86428 | 22957 ft | 516 kts | 37° |
| 2026-05-07 17:55 | 39.48852 | -75.83262 | 22930 ft | 525 kts | 37° |
| 2026-05-07 17:55 | 39.51555 | -75.80060 | 22939 ft | 527 kts | 37° |
| 2026-05-07 17:55 | 39.54216 | -75.76900 | 22892 ft | 525 kts | 37° |
| 2026-05-07 17:55 | 39.56906 | -75.73701 | 22928 ft | 523 kts | 37° |
| 2026-05-07 17:56 | 39.59546 | -75.70554 | 22949 ft | 510 kts | 37° |
| 2026-05-07 17:56 | 39.62125 | -75.67480 | 22930 ft | 496 kts | 37° |
| 2026-05-07 17:56 | 39.64631 | -75.64493 | 22910 ft | 482 kts | 37° |
| 2026-05-07 17:56 | 39.67060 | -75.61596 | 22894 ft | 468 kts | 37° |
| 2026-05-07 17:57 | 39.69323 | -75.58615 | 22767 ft | 461 kts | 44° |
| 2026-05-07 17:57 | 39.70707 | -75.56540 | 22582 ft | 458 kts | 45° |
| 2026-05-07 17:57 | 39.73440 | -75.52242 | 21491 ft | 470 kts | 47° |
| 2026-05-07 17:57 | 39.75503 | -75.48937 | 20530 ft | 483 kts | 47° |
| 2026-05-07 17:58 | 39.77615 | -75.45547 | 20127 ft | 478 kts | 47° |
| 2026-05-07 17:58 | 39.79695 | -75.42228 | 19917 ft | 469 kts | 47° |
| 2026-05-07 17:58 | 39.81754 | -75.38964 | 19437 ft | 467 kts | 46° |
| 2026-05-07 17:58 | 39.83822 | -75.35709 | 18988 ft | 464 kts | 46° |
| 2026-05-07 17:59 | 39.85868 | -75.32495 | 18623 ft | 459 kts | 46° |
| 2026-05-07 17:59 | 39.88056 | -75.29555 | 18214 ft | 444 kts | 28° |
| 2026-05-07 17:59 | 39.90730 | -75.27844 | 17773 ft | 417 kts | 7° |
| 2026-05-07 17:59 | 39.93438 | -75.26725 | 17384 ft | 415 kts | 11° |
| 2026-05-07 18:00 | 39.96059 | -75.25060 | 16904 ft | 425 kts | 25° |
| 2026-05-07 18:00 | 39.98535 | -75.22908 | 16057 ft | 435 kts | 30° |
| 2026-05-07 18:00 | 40.00952 | -75.20482 | 15311 ft | 441 kts | 35° |
| 2026-05-07 18:00 | 40.03291 | -75.17842 | 14493 ft | 447 kts | 38° |
| 2026-05-07 18:01 | 40.05584 | -75.15066 | 13652 ft | 452 kts | 40° |
| 2026-05-07 18:01 | 40.07868 | -75.12227 | 12749 ft | 455 kts | 40° |
| 2026-05-07 18:01 | 40.10135 | -75.09416 | 12469 ft | 441 kts | 40° |
| 2026-05-07 18:01 | 40.12319 | -75.06726 | 12362 ft | 423 kts | 39° |
| 2026-05-07 18:02 | 40.16435 | -75.01682 | 12113 ft | 394 kts | 39° |
| 2026-05-07 18:02 | 40.18398 | -74.99276 | 12010 ft | 381 kts | 39° |
| 2026-05-07 18:02 | 40.20296 | -74.96948 | 11915 ft | 368 kts | 39° |
| 2026-05-07 18:03 | 40.22133 | -74.94693 | 11831 ft | 356 kts | 38° |
| 2026-05-07 18:03 | 40.23909 | -74.92509 | 11748 ft | 345 kts | 38° |
| 2026-05-07 18:03 | 40.25625 | -74.90387 | 11644 ft | 335 kts | 40° |
| 2026-05-07 18:03 | 40.27232 | -74.88204 | 11429 ft | 330 kts | 43° |
| 2026-05-07 18:04 | 40.28772 | -74.86012 | 11049 ft | 325 kts | 43° |
| 2026-05-07 18:04 | 40.30297 | -74.83830 | 10538 ft | 324 kts | 42° |
| 2026-05-07 18:04 | 40.31798 | -74.81704 | 10036 ft | 321 kts | 42° |
| 2026-05-07 18:04 | 40.33312 | -74.79570 | 9495 ft | 318 kts | 42° |
| 2026-05-07 18:05 | 40.34800 | -74.77476 | 9083 ft | 309 kts | 41° |
| 2026-05-07 18:05 | 40.36246 | -74.75440 | 8656 ft | 301 kts | 41° |
| 2026-05-07 18:05 | 40.37659 | -74.73453 | 8221 ft | 294 kts | 41° |
| 2026-05-07 18:05 | 40.39037 | -74.71510 | 7793 ft | 287 kts | 41° |
| 2026-05-07 18:06 | 40.40384 | -74.69613 | 7352 ft | 281 kts | 42° |
| 2026-05-07 18:06 | 40.41678 | -74.67783 | 6956 ft | 274 kts | 43° |
| 2026-05-07 18:06 | 40.42651 | -74.65649 | 6518 ft | 275 kts | 67° |
| 2026-05-07 18:06 | 40.43206 | -74.63275 | 6099 ft | 269 kts | 69° |
| 2026-05-07 18:07 | 40.43741 | -74.60942 | 5601 ft | 265 kts | 70° |
| 2026-05-07 18:07 | 40.44269 | -74.58658 | 5305 ft | 257 kts | 70° |
| 2026-05-07 18:07 | 40.44787 | -74.56435 | 5096 ft | 254 kts | 71° |
| 2026-05-07 18:07 | 40.45312 | -74.54199 | 4929 ft | 257 kts | 71° |
| 2026-05-07 18:08 | 40.45843 | -74.51943 | 4724 ft | 260 kts | 71° |
| 2026-05-07 18:08 | 40.46375 | -74.49688 | 4532 ft | 257 kts | 71° |
| 2026-05-07 18:08 | 40.46895 | -74.47487 | 4343 ft | 255 kts | 72° |
| 2026-05-07 18:08 | 40.47417 | -74.45276 | 4182 ft | 253 kts | 71° |
| 2026-05-07 18:09 | 40.47937 | -74.43071 | 4001 ft | 252 kts | 72° |
| 2026-05-07 18:09 | 40.48455 | -74.40878 | 3828 ft | 252 kts | 71° |
| 2026-05-07 18:09 | 40.48976 | -74.38668 | 3658 ft | 255 kts | 71° |
| 2026-05-07 18:09 | 40.49502 | -74.36439 | 3479 ft | 255 kts | 71° |
| 2026-05-07 18:10 | 40.50016 | -74.34249 | 3293 ft | 242 kts | 72° |
| 2026-05-07 18:10 | 40.50490 | -74.32229 | 3113 ft | 222 kts | 70° |
| 2026-05-07 18:10 | 40.50927 | -74.30358 | 2933 ft | 206 kts | 70° |
| 2026-05-07 18:10 | 40.51373 | -74.28659 | 2822 ft | 191 kts | 58° |
| 2026-05-07 18:11 | 40.52216 | -74.27386 | 2766 ft | 184 kts | 39° |
| 2026-05-07 18:11 | 40.52937 | -74.26760 | 2590 ft | 185 kts | 22° |
| 2026-05-07 18:11 | 40.54478 | -74.25838 | 2429 ft | 184 kts | 24° |
| 2026-05-07 18:11 | 40.55623 | -74.25108 | 2261 ft | 181 kts | 23° |
| 2026-05-07 18:12 | 40.56761 | -74.24420 | 2123 ft | 179 kts | 24° |
| 2026-05-07 18:12 | 40.57904 | -74.23695 | 1971 ft | 183 kts | 25° |
| 2026-05-07 18:12 | 40.59045 | -74.22966 | 1828 ft | 183 kts | 24° |
| 2026-05-07 18:12 | 40.60203 | -74.22233 | 1727 ft | 183 kts | 24° |
| 2026-05-07 18:13 | 40.61280 | -74.21542 | 1683 ft | 161 kts | 24° |
| 2026-05-07 18:13 | 40.62250 | -74.20924 | 1691 ft | 154 kts | 23° |
| 2026-05-07 18:13 | 40.63216 | -74.20310 | 1692 ft | 156 kts | 25° |
| 2026-05-07 18:13 | 40.64185 | -74.19683 | 1597 ft | 156 kts | 26° |
| 2026-05-07 18:14 | 40.65159 | -74.19022 | 1205 ft | 159 kts | 24° |
| 2026-05-07 18:14 | 40.66151 | -74.18415 | 752 ft | 153 kts | 23° |
| 2026-05-07 18:14 | 40.67112 | -74.17806 | 292 ft | 150 kts | 26° |
| 2026-05-07 18:14 | 40.67994 | -74.17264 | 53 ft | 128 kts | 15° |
| 2026-05-07 18:15 | 40.68711 | -74.16856 | 19 ft | 90 kts | 18° |
| 2026-05-07 18:15 | 40.69074 | -74.16610 | 21 ft | 28 kts | 11° |
| 2026-05-07 18:15 | 40.69125 | -74.16597 | 23 ft | 10 kts | 11° |
| 2026-05-07 18:15 | 40.69217 | -74.16594 | 27 ft | 15 kts | 358° |
| 2026-05-07 18:16 | 40.69314 | -74.16598 | 25 ft | 13 kts | 355° |
| 2026-05-07 18:16 | 40.69409 | -74.16648 | 21 ft | 17 kts | 301° |
| 2026-05-07 18:16 | 40.69459 | -74.16781 | 21 ft | 7 kts | 298° |
| 2026-05-07 18:16 | 40.69482 | -74.16843 | 21 ft | 8 kts | 297° |
| 2026-05-07 18:17 | 40.69504 | -74.16908 | 20 ft | 8 kts | 292° |
| 2026-05-07 18:17 | 40.69526 | -74.16980 | 19 ft | 9 kts | 285° |
| 2026-05-07 18:17 | 40.69527 | -74.17058 | 19 ft | 8 kts | 280° |
| 2026-05-07 18:17 | 40.69574 | -74.17097 | 20 ft | 8 kts | 340° |
| 2026-05-07 18:18 | 40.69628 | -74.17120 | 20 ft | 8 kts | 334° |
| 2026-05-07 18:18 | 40.69676 | -74.17153 | 22 ft | 8 kts | 332° |
| 2026-05-07 18:18 | 40.69722 | -74.17190 | 20 ft | 8 kts | 321° |
| 2026-05-07 18:18 | 40.69763 | -74.17236 | 21 ft | 8 kts | 317° |
| 2026-05-07 18:19 | 40.69802 | -74.17283 | 24 ft | 7 kts | 316° |
| 2026-05-07 18:19 | 40.69835 | -74.17332 | 22 ft | 7 kts | 309° |
| 2026-05-07 18:19 | 40.69860 | -74.17377 | 23 ft | 6 kts | 303° |
| 2026-05-07 18:19 | 40.69878 | -74.17423 | 21 ft | 6 kts | 292° |
| 2026-05-07 18:20 | 40.69893 | -74.17476 | 22 ft | 6 kts | 285° |
| 2026-05-07 18:20 | 40.69898 | -74.17538 | 21 ft | 8 kts | 262° |
| 2026-05-07 18:20 | 40.69851 | -74.17593 | 20 ft | 10 kts | 189° |
| 2026-05-07 18:20 | 40.69807 | -74.17568 | 20 ft | 1 kts | 148° |
| 2026-05-07 18:21 | 40.69798 | -74.17560 | 20 ft | 2 kts | 149° |
| 2026-05-07 18:21 | 40.69788 | -74.17553 | 21 ft | 1 kts | 150° |
| 2026-05-07 18:21 | 40.69786 | -74.17551 | 21 ft | 0 kts | 150° |